createdAt,value
2023-04-27T00:00:49.183Z,3.63
2023-04-27T00:03:16.659Z,2.38
2023-04-27T00:05:44.344Z,2.13
2023-04-27T00:08:11.500Z,6.68
2023-04-27T00:10:38.300Z,3.33
2023-04-27T00:13:05.064Z,2.10
2023-04-27T00:15:31.960Z,2.92
2023-04-27T00:17:58.814Z,4.07
2023-04-27T00:20:25.699Z,6.00
2023-04-27T00:22:52.502Z,3.92
2023-04-27T00:25:19.308Z,3.13
2023-04-27T00:27:46.382Z,1.92
2023-04-27T00:30:13.228Z,1.88
2023-04-27T00:32:40.160Z,2.67
2023-04-27T00:35:07.639Z,1.85
2023-04-27T00:37:34.489Z,1.55
2023-04-27T00:40:01.343Z,2.22
2023-04-27T00:42:28.099Z,2.25
2023-04-27T00:44:57.996Z,3.53
2023-04-27T00:47:25.201Z,1.83
2023-04-27T00:49:52.052Z,1.73
2023-04-27T00:52:19.362Z,2.72
2023-04-27T00:54:48.718Z,2.80
2023-04-27T00:57:16.399Z,1.25
2023-04-27T00:59:43.181Z,0.98
2023-04-27T01:02:11.274Z,2.65
2023-04-27T01:04:38.310Z,1.00
2023-04-27T01:07:05.205Z,2.22
2023-04-27T01:09:32.126Z,4.10
2023-04-27T01:11:58.997Z,1.60
2023-04-27T01:14:25.788Z,1.00
2023-04-27T01:16:52.620Z,1.27
2023-04-27T01:19:19.484Z,2.15
2023-04-27T01:21:46.700Z,0.90
2023-04-27T01:24:13.490Z,2.25
2023-04-27T01:26:40.532Z,2.58
2023-04-27T01:29:07.301Z,2.25
2023-04-27T01:31:34.135Z,1.77
2023-04-27T01:34:01.008Z,6.25
2023-04-27T01:36:27.871Z,1.73
2023-04-27T01:38:54.616Z,1.20
2023-04-27T01:41:21.476Z,1.15
2023-04-27T01:43:48.224Z,3.47
2023-04-27T01:46:15.966Z,1.30
2023-04-27T01:48:42.823Z,1.20
2023-04-27T01:51:09.823Z,1.45
2023-04-27T01:53:36.592Z,1.27
2023-04-27T01:56:03.685Z,2.17
2023-04-27T01:58:30.501Z,2.08
2023-04-27T02:00:57.292Z,1.42
2023-04-27T02:03:24.156Z,0.98
2023-04-27T02:05:50.904Z,1.70
2023-04-27T02:08:17.701Z,1.45
2023-04-27T02:10:44.463Z,1.60
2023-04-27T02:13:11.257Z,1.77
2023-04-27T02:15:38.108Z,1.48
2023-04-27T02:18:05.821Z,2.65
2023-04-27T02:20:33.641Z,0.75
2023-04-27T02:23:01.215Z,3.65
2023-04-27T02:25:28.170Z,1.83
2023-04-27T02:27:55.481Z,0.55
2023-04-27T02:30:22.944Z,1.35
2023-04-27T02:32:50.412Z,3.15
2023-04-27T02:35:17.363Z,0.95
2023-04-27T02:37:44.140Z,0.70
2023-04-27T02:40:11.382Z,1.08
2023-04-27T02:42:40.934Z,0.95
2023-04-27T02:45:08.368Z,1.27
2023-04-27T02:47:35.672Z,1.35
2023-04-27T02:50:02.887Z,2.28
2023-04-27T02:52:29.643Z,2.42
2023-04-27T02:54:56.447Z,5.68
2023-04-27T02:57:23.309Z,2.97
2023-04-27T02:59:50.414Z,1.33
2023-04-27T03:02:17.252Z,3.13
2023-04-27T03:04:44.430Z,1.48
2023-04-27T03:07:12.611Z,1.85
2023-04-27T03:09:39.388Z,1.17
2023-04-27T03:12:06.277Z,1.73
2023-04-27T03:14:33.100Z,1.52
2023-04-27T03:17:00.883Z,1.27
2023-04-27T03:19:27.897Z,2.28
2023-04-27T03:21:54.708Z,1.88
2023-04-27T03:24:21.922Z,1.50
2023-04-27T03:26:48.688Z,1.92
2023-04-27T03:29:15.882Z,0.90
2023-04-27T03:31:42.872Z,0.82
2023-04-27T03:34:09.703Z,0.93
2023-04-27T03:36:36.628Z,0.80
2023-04-27T03:39:03.740Z,2.35
2023-04-27T03:41:30.534Z,1.30
2023-04-27T03:43:57.278Z,1.10
2023-04-27T03:46:24.149Z,2.95
2023-04-27T03:48:50.927Z,0.63
2023-04-27T03:51:18.329Z,2.20
2023-04-27T03:53:45.119Z,1.65
2023-04-27T03:56:11.932Z,1.73
2023-04-27T03:58:38.769Z,1.80
2023-04-27T04:01:06.376Z,1.13
2023-04-27T04:03:33.217Z,1.10
2023-04-27T04:06:00.132Z,2.80
2023-04-27T04:08:26.904Z,2.65
2023-04-27T04:10:53.741Z,2.10
2023-04-27T04:13:20.678Z,2.15
2023-04-27T04:15:47.566Z,1.52
2023-04-27T04:18:14.432Z,2.47
2023-04-27T04:20:41.654Z,3.85
2023-04-27T04:23:08.618Z,1.38
2023-04-27T04:25:35.469Z,2.58
2023-04-27T04:28:02.186Z,1.50
2023-04-27T04:30:29.016Z,4.18
2023-04-27T04:32:55.842Z,3.15
2023-04-27T04:35:22.676Z,1.42
2023-04-27T04:37:49.897Z,1.65
2023-04-27T04:40:16.851Z,2.42
2023-04-27T04:42:43.655Z,2.33
2023-04-27T04:45:10.862Z,2.17
2023-04-27T04:47:37.709Z,5.90
2023-04-27T04:50:04.918Z,2.15
2023-04-27T04:52:31.765Z,4.30
2023-04-27T04:54:58.704Z,1.70
2023-04-27T04:57:25.522Z,2.53
2023-04-27T04:59:52.237Z,2.63
2023-04-27T05:02:19.021Z,1.30
2023-04-27T05:04:45.966Z,4.40
2023-04-27T05:07:15.082Z,3.45
2023-04-27T05:09:42.523Z,1.17
2023-04-27T05:12:09.559Z,5.13
2023-04-27T05:14:36.413Z,1.40
2023-04-27T05:17:03.212Z,2.28
2023-04-27T05:19:31.305Z,3.83
2023-04-27T05:21:59.161Z,4.38
2023-04-27T05:24:26.872Z,3.95
2023-04-27T05:26:54.307Z,3.10
2023-04-27T05:29:21.996Z,1.90
2023-04-27T05:31:49.203Z,3.22
2023-04-27T05:34:16.234Z,2.67
2023-04-27T05:36:43.135Z,3.45
2023-04-27T05:39:09.953Z,3.30
2023-04-27T05:41:36.755Z,5.03
2023-04-27T05:44:03.554Z,5.07
2023-04-27T05:46:30.617Z,1.33
2023-04-27T05:48:57.766Z,1.80
2023-04-27T05:51:24.760Z,6.65
2023-04-27T05:53:55.153Z,4.20
2023-04-27T05:56:22.389Z,3.10
2023-04-27T05:58:49.278Z,2.10
2023-04-27T06:01:16.126Z,2.95
2023-04-27T06:03:43.029Z,3.33
2023-04-27T06:06:09.928Z,1.77
2023-04-27T06:08:37.605Z,0.80
2023-04-27T06:11:04.582Z,3.63
2023-04-27T06:13:33.149Z,1.80
2023-04-27T06:16:01.384Z,4.75
2023-04-27T06:18:28.471Z,4.70
2023-04-27T06:21:02.382Z,3.15
2023-04-27T06:23:29.644Z,1.38
2023-04-27T06:25:56.482Z,4.53
2023-04-27T06:28:23.393Z,8.95
2023-04-27T06:30:50.270Z,5.35
2023-04-27T06:33:17.164Z,1.38
2023-04-27T06:35:47.083Z,3.22
2023-04-27T06:38:14.383Z,2.45
2023-04-27T06:40:41.175Z,7.88
2023-04-27T06:43:07.981Z,2.78
2023-04-27T06:45:34.968Z,4.03
2023-04-27T06:48:01.810Z,1.70
2023-04-27T06:50:29.405Z,4.97
2023-04-27T06:52:56.312Z,3.85
2023-04-27T06:55:23.945Z,4.47
2023-04-27T06:57:51.120Z,1.23
2023-04-27T07:00:18.342Z,1.38
2023-04-27T07:02:45.349Z,1.33
2023-04-27T07:05:12.229Z,2.08
2023-04-27T07:07:39.477Z,1.15
2023-04-27T07:10:07.314Z,1.30
2023-04-27T07:12:34.167Z,0.32
2023-04-27T07:15:02.790Z,0.30
2023-04-27T07:17:29.788Z,0.98
2023-04-27T07:19:56.611Z,2.75
2023-04-27T07:22:23.632Z,0.60
2023-04-27T07:24:51.141Z,0.80
2023-04-27T07:27:17.866Z,0.85
2023-04-27T07:29:45.011Z,0.73
2023-04-27T07:32:11.873Z,0.45
2023-04-27T07:34:51.875Z,3.58
2023-04-27T07:37:20.558Z,1.80
2023-04-27T07:39:54.855Z,0.65
2023-04-27T07:42:25.184Z,2.08
2023-04-27T07:44:52.617Z,0.73
2023-04-27T07:47:19.661Z,1.13
2023-04-27T07:49:47.137Z,1.90
2023-04-27T07:52:14.640Z,0.60
2023-04-27T07:54:41.451Z,2.45
2023-04-27T07:57:10.231Z,2.15
2023-04-27T07:59:37.585Z,8.52
2023-04-27T08:02:18.260Z,2.60
2023-04-27T08:04:46.801Z,1.77
2023-04-27T08:07:15.004Z,3.67
2023-04-27T08:09:42.126Z,2.00
2023-04-27T08:12:09.083Z,1.20
2023-04-27T08:14:36.507Z,2.38
2023-04-27T08:17:03.606Z,1.42
2023-04-27T08:19:30.497Z,0.73
2023-04-27T08:21:57.212Z,7.65
2023-04-27T08:24:24.418Z,1.58
2023-04-27T08:26:51.347Z,1.75
2023-04-27T08:29:27.016Z,3.03
2023-04-27T08:31:56.844Z,1.55
2023-04-27T08:34:23.923Z,0.77
2023-04-27T08:36:50.741Z,1.15
2023-04-27T08:39:18.227Z,1.95
2023-04-27T08:41:45.304Z,2.03
2023-04-27T08:44:12.187Z,0.52
2023-04-27T08:46:39.558Z,0.85
2023-04-27T08:49:10.789Z,1.67
2023-04-27T08:51:37.680Z,2.63
2023-04-27T08:54:04.672Z,1.58
2023-04-27T08:56:31.550Z,1.95
2023-04-27T08:59:00.713Z,2.28
2023-04-27T09:01:27.736Z,0.38
2023-04-27T09:06:35.867Z,3.75
2023-04-27T09:09:03.946Z,1.02
2023-04-27T09:11:35.874Z,2.72
2023-04-27T09:14:15.002Z,3.50
2023-04-27T09:16:43.012Z,1.77
2023-04-27T09:19:10.117Z,2.05
2023-04-27T09:21:36.998Z,0.95
2023-04-27T09:24:12.850Z,2.05
2023-04-27T09:26:40.669Z,2.03
2023-04-27T09:29:08.054Z,1.67
2023-04-27T09:31:35.925Z,1.67
2023-04-27T09:34:04.425Z,3.22
2023-04-27T09:36:32.680Z,1.13
2023-04-27T09:39:04.749Z,2.38
2023-04-27T09:41:33.363Z,1.10
2023-04-27T09:44:00.935Z,2.42
2023-04-27T09:46:29.609Z,3.30
2023-04-27T09:48:56.962Z,1.50
2023-04-27T09:51:23.722Z,1.25
2023-04-27T09:53:54.374Z,1.00
2023-04-27T09:56:39.640Z,13.20
2023-04-27T09:59:09.874Z,2.15
2023-04-27T10:01:43.621Z,1.60
2023-04-27T10:04:25.423Z,0.70
2023-04-27T10:07:04.928Z,1.77
2023-04-27T10:09:37.325Z,3.97
2023-04-27T10:12:26.608Z,2.88
2023-04-27T10:15:11.343Z,3.63
2023-04-27T10:17:38.290Z,5.28
2023-04-27T10:20:08.957Z,5.05
2023-04-27T10:22:47.936Z,1.05
2023-04-27T10:25:18.941Z,1.52
2023-04-27T10:28:04.662Z,1.13
2023-04-27T10:30:39.746Z,3.55
2023-04-27T10:33:11.931Z,2.80
2023-04-27T10:35:44.262Z,1.05
2023-04-27T10:38:21.547Z,1.08
2023-04-27T10:41:02.107Z,1.10
2023-04-27T10:43:34.860Z,1.17
2023-04-27T10:46:13.019Z,2.45
2023-04-27T10:48:41.232Z,1.80
2023-04-27T10:51:08.289Z,0.88
2023-04-27T10:53:38.253Z,4.85
2023-04-27T10:56:06.951Z,2.30
2023-04-27T11:01:09.273Z,2.85
2023-04-27T11:03:36.427Z,1.05
2023-04-27T11:06:05.882Z,2.42
2023-04-27T11:08:34.115Z,1.67
2023-04-27T11:11:01.589Z,1.48
2023-04-27T11:13:28.789Z,5.30
2023-04-27T11:15:57.837Z,2.17
2023-04-27T11:18:27.325Z,2.33
2023-04-27T11:21:05.632Z,0.82
2023-04-27T11:23:38.820Z,3.03
2023-04-27T11:26:16.195Z,2.45
2023-04-27T11:29:05.614Z,2.65
2023-04-27T11:31:40.868Z,1.65
2023-04-27T11:34:08.650Z,3.75
2023-04-27T11:36:36.191Z,3.95
2023-04-27T11:39:06.401Z,4.13
2023-04-27T11:41:35.135Z,2.92
2023-04-27T11:44:09.120Z,3.20
2023-04-27T11:46:41.229Z,1.67
2023-04-27T11:49:11.371Z,1.67
2023-04-27T11:51:40.508Z,3.88
2023-04-27T11:54:08.004Z,1.75
2023-04-27T11:56:40.551Z,2.10
2023-04-27T11:59:19.123Z,3.83
2023-04-27T12:01:47.248Z,2.55
2023-04-27T12:04:14.513Z,2.47
2023-04-27T12:06:41.749Z,4.53
2023-04-27T12:09:08.986Z,2.58
2023-04-27T12:11:36.023Z,3.47
2023-04-27T12:14:03.076Z,2.75
2023-04-27T12:16:30.203Z,1.48
2023-04-27T12:18:57.044Z,4.55
2023-04-27T12:21:24.031Z,1.67
2023-04-27T12:23:50.881Z,2.67
2023-04-27T12:26:18.366Z,3.42
2023-04-27T12:28:45.233Z,3.88
2023-04-27T12:31:16.367Z,4.40
2023-04-27T12:33:43.254Z,8.13
2023-04-27T12:36:10.316Z,2.75
2023-04-27T12:38:37.469Z,11.30
2023-04-27T12:41:04.363Z,3.00
2023-04-27T12:43:31.409Z,6.95
2023-04-27T12:45:58.253Z,3.00
2023-04-27T12:48:25.234Z,4.82
2023-04-27T12:50:52.295Z,4.20
2023-04-27T12:53:19.022Z,7.32
2023-04-27T12:55:46.964Z,8.98
2023-04-27T12:58:13.756Z,3.72
2023-04-27T13:00:41.810Z,5.88
2023-04-27T13:03:08.891Z,6.72
2023-04-27T13:05:35.910Z,5.70
2023-04-27T13:08:02.893Z,8.15
2023-04-27T13:10:29.891Z,5.88
2023-04-27T13:12:56.694Z,6.97
2023-04-27T13:15:23.426Z,6.38
2023-04-27T13:17:50.373Z,6.78
2023-04-27T13:20:17.283Z,11.15
2023-04-27T13:22:44.097Z,7.53
2023-04-27T13:25:11.018Z,10.88
2023-04-27T13:27:37.839Z,7.40
2023-04-27T13:30:05.369Z,4.93
2023-04-27T13:32:32.335Z,7.55
2023-04-27T13:34:59.574Z,6.95
2023-04-27T13:37:27.145Z,9.07
2023-04-27T13:39:54.013Z,10.93
2023-04-27T13:42:21.514Z,6.47
2023-04-27T13:44:48.487Z,10.38
2023-04-27T13:47:15.561Z,9.02
2023-04-27T13:49:42.403Z,8.48
2023-04-27T13:52:09.950Z,8.65
2023-04-27T13:54:37.308Z,11.77
2023-04-27T13:57:04.201Z,12.15
2023-04-27T13:59:31.043Z,8.82
2023-04-27T14:01:57.824Z,7.50
2023-04-27T14:04:24.735Z,11.93
2023-04-27T14:06:51.577Z,9.30
2023-04-27T14:09:18.770Z,10.75
2023-04-27T14:11:55.793Z,12.02
2023-04-27T14:14:23.717Z,12.77
2023-04-27T14:16:53.323Z,15.63
2023-04-27T14:19:20.752Z,12.32
2023-04-27T14:21:49.317Z,16.83
2023-04-27T14:24:16.356Z,16.35
2023-04-27T14:26:44.256Z,11.90
2023-04-27T14:29:11.909Z,10.23
2023-04-27T14:31:40.282Z,10.55
2023-04-27T14:34:08.404Z,8.88
2023-04-27T14:36:36.000Z,11.05
2023-04-27T14:39:04.679Z,9.10
2023-04-27T14:41:31.516Z,9.43
2023-04-27T14:43:58.454Z,8.45
2023-04-27T14:46:25.310Z,8.98
2023-04-27T14:48:52.052Z,11.32
2023-04-27T14:51:19.216Z,10.02
2023-04-27T14:53:45.989Z,10.70
2023-04-27T14:56:12.813Z,12.35
2023-04-27T14:58:39.604Z,10.80
2023-04-27T15:01:07.480Z,9.85
2023-04-27T15:03:34.656Z,8.48
2023-04-27T15:06:02.427Z,7.75
2023-04-27T15:08:31.321Z,9.35
2023-04-27T15:10:59.904Z,8.40
2023-04-27T15:13:27.564Z,8.20
2023-04-27T15:15:58.601Z,9.85
2023-04-27T15:18:25.974Z,10.38
2023-04-27T15:20:54.276Z,8.98
2023-04-27T15:23:21.960Z,8.50
2023-04-27T15:25:50.121Z,8.75
2023-04-27T15:28:17.676Z,8.93
2023-04-27T15:30:47.441Z,8.95
2023-04-27T15:33:15.535Z,10.75
2023-04-27T15:35:42.738Z,7.57
2023-04-27T15:38:12.146Z,6.55
2023-04-27T15:40:39.565Z,6.85
2023-04-27T15:43:06.997Z,9.27
2023-04-27T15:45:33.983Z,7.47
2023-04-27T15:48:00.789Z,8.73
2023-04-27T15:50:27.655Z,7.25
2023-04-27T15:52:54.456Z,7.68
2023-04-27T15:55:22.274Z,10.43
2023-04-27T15:57:49.281Z,6.55
2023-04-27T16:00:16.949Z,7.60
2023-04-27T16:02:44.146Z,8.85
2023-04-27T16:05:11.213Z,6.70
2023-04-27T16:07:39.791Z,9.23
2023-04-27T16:10:07.710Z,5.07
2023-04-27T16:12:34.736Z,8.32
2023-04-27T16:15:01.548Z,6.75
2023-04-27T16:17:35.746Z,5.22
2023-04-27T16:20:06.942Z,6.60
2023-04-27T16:22:37.797Z,5.22
2023-04-27T16:25:10.123Z,12.60
2023-04-27T16:27:38.585Z,7.43
2023-04-27T16:30:07.411Z,5.80
2023-04-27T16:32:35.600Z,7.55
2023-04-27T16:35:03.130Z,6.95
2023-04-27T16:37:30.165Z,6.88
2023-04-27T16:40:01.283Z,6.57
2023-04-27T16:44:55.752Z,6.97
2023-04-27T16:47:24.910Z,8.15
2023-04-27T16:49:51.798Z,13.82
2023-04-27T16:52:20.088Z,9.15
2023-04-27T16:54:47.028Z,8.07
2023-04-27T16:57:13.814Z,8.90
2023-04-27T16:59:40.729Z,6.43
2023-04-27T17:02:23.067Z,6.35
2023-04-27T17:04:51.309Z,9.23
2023-04-27T17:07:18.390Z,7.38
2023-04-27T17:09:45.165Z,9.38
2023-04-27T17:12:13.437Z,7.15
2023-04-27T17:14:40.332Z,10.05
2023-04-27T17:17:07.239Z,7.95
2023-04-27T17:19:34.135Z,9.02
2023-04-27T17:22:00.969Z,11.75
2023-04-27T17:24:27.777Z,11.98
2023-04-27T17:26:54.564Z,23.73
2023-04-27T17:29:21.863Z,12.55
2023-04-27T17:31:50.156Z,12.23
2023-04-27T17:34:17.048Z,10.73
2023-04-27T17:36:43.950Z,10.20
2023-04-27T17:39:12.856Z,11.05
2023-04-27T17:41:40.152Z,10.00
2023-04-27T17:44:07.328Z,9.52
2023-04-27T17:46:34.289Z,13.13
2023-04-27T17:49:01.371Z,11.90
2023-04-27T17:51:28.113Z,11.77
2023-04-27T17:53:54.875Z,9.95
2023-04-27T17:56:23.498Z,9.13
2023-04-27T17:58:50.514Z,9.48
2023-04-27T18:01:17.328Z,11.32
2023-04-27T18:03:44.328Z,11.75
2023-04-27T18:06:11.640Z,9.63
2023-04-27T18:08:38.505Z,8.30
2023-04-27T18:11:06.627Z,9.00
2023-04-27T18:13:33.711Z,10.63
2023-04-27T18:16:00.597Z,9.50
2023-04-27T18:18:28.120Z,10.30
2023-04-27T18:20:54.945Z,10.98
2023-04-27T18:23:21.841Z,8.95
2023-04-27T18:25:49.129Z,8.90
2023-04-27T18:28:16.266Z,8.43
2023-04-27T18:30:43.127Z,9.60
2023-04-27T18:33:10.018Z,7.13
2023-04-27T18:35:37.077Z,7.63
2023-04-27T18:38:03.964Z,7.13
2023-04-27T18:40:31.628Z,6.13
2023-04-27T18:42:58.574Z,5.05
2023-04-27T18:45:25.356Z,4.88
2023-04-27T18:47:52.192Z,4.35
2023-04-27T18:50:19.312Z,2.75
2023-04-27T18:52:46.755Z,4.00
2023-04-27T18:55:18.119Z,3.13
2023-04-27T18:57:45.370Z,4.53
2023-04-27T19:00:13.139Z,3.65
2023-04-27T19:02:40.363Z,4.28
2023-04-27T19:05:12.995Z,2.97
2023-04-27T19:07:41.049Z,5.20
2023-04-27T19:10:08.676Z,4.40
2023-04-27T19:12:35.927Z,2.30
2023-04-27T19:15:02.889Z,4.88
2023-04-27T19:17:29.848Z,3.45
2023-04-27T19:19:56.898Z,3.08
2023-04-27T19:22:24.022Z,2.40
2023-04-27T19:24:50.904Z,3.47
2023-04-27T19:27:17.965Z,4.03
2023-04-27T19:29:53.632Z,4.78
2023-04-27T19:32:21.518Z,5.53
2023-04-27T19:34:49.041Z,3.75
2023-04-27T19:37:16.106Z,2.15
2023-04-27T19:39:43.101Z,3.40
2023-04-27T19:42:09.983Z,2.70
2023-04-27T19:44:36.837Z,2.08
2023-04-27T19:47:03.743Z,3.65
2023-04-27T19:49:33.896Z,4.05
2023-04-27T19:52:01.069Z,1.98
2023-04-27T19:54:27.965Z,3.47
2023-04-27T19:56:55.651Z,4.22
2023-04-27T19:59:22.656Z,4.00
2023-04-27T20:01:49.853Z,3.05
2023-04-27T20:04:18.515Z,3.10
2023-04-27T20:06:46.416Z,3.58
2023-04-27T20:09:13.471Z,3.75
2023-04-27T20:11:40.370Z,4.90
2023-04-27T20:14:07.221Z,4.03
2023-04-27T20:16:34.013Z,3.75
2023-04-27T20:19:00.838Z,6.70
2023-04-27T20:21:28.126Z,3.47
2023-04-27T20:23:55.026Z,4.28
2023-04-27T20:26:22.575Z,2.88
2023-04-27T20:28:49.672Z,2.95
2023-04-27T20:31:16.731Z,3.70
2023-04-27T20:33:43.560Z,4.20
2023-04-27T20:36:17.397Z,4.18
2023-04-27T20:38:45.983Z,5.90
2023-04-27T20:41:12.973Z,4.30
2023-04-27T20:43:40.199Z,4.00
2023-04-27T20:46:13.346Z,4.40
2023-04-27T20:48:40.206Z,4.03
2023-04-27T20:51:06.968Z,3.90
2023-04-27T20:53:33.890Z,6.45
2023-04-27T20:56:00.725Z,4.90
2023-04-27T20:58:27.547Z,3.95
2023-04-27T21:00:54.363Z,2.67
2023-04-27T21:03:22.416Z,5.40
2023-04-27T21:05:49.406Z,3.50
2023-04-27T21:08:17.015Z,4.32
2023-04-27T21:10:44.567Z,3.97
2023-04-27T21:13:11.562Z,3.97
2023-04-27T21:15:38.673Z,4.90
2023-04-27T21:18:06.671Z,4.85
2023-04-27T21:20:36.397Z,4.07
2023-04-27T21:23:03.570Z,7.93
2023-04-27T21:25:30.680Z,9.70
2023-04-27T21:27:57.465Z,6.13
2023-04-27T21:30:24.502Z,5.72
2023-04-27T21:32:51.414Z,3.63
2023-04-27T21:35:18.317Z,2.83
2023-04-27T21:37:45.323Z,1.67
2023-04-27T21:40:12.406Z,3.05
2023-04-27T21:42:39.210Z,4.78
2023-04-27T21:45:06.491Z,2.47
2023-04-27T21:47:33.361Z,2.33
2023-04-27T21:50:00.159Z,5.20
2023-04-27T21:52:26.969Z,2.22
2023-04-27T21:54:53.772Z,2.38
2023-04-27T21:57:20.525Z,4.22
2023-04-27T21:59:47.345Z,4.88
2023-04-27T22:02:14.084Z,3.38
2023-04-27T22:04:41.023Z,2.22
2023-04-27T22:07:08.581Z,2.47
2023-04-27T22:09:35.840Z,4.25
2023-04-27T22:12:05.774Z,2.90
2023-04-27T22:14:32.862Z,2.53
2023-04-27T22:17:00.906Z,1.95
2023-04-27T22:19:28.633Z,3.40
2023-04-27T22:21:55.608Z,3.47
2023-04-27T22:24:23.235Z,2.28
2023-04-27T22:26:50.031Z,4.50
2023-04-27T22:29:17.128Z,2.35
2023-04-27T22:31:44.930Z,3.08
2023-04-27T22:34:13.248Z,3.80
2023-04-27T22:36:40.590Z,4.32
2023-04-27T22:39:07.442Z,4.47
2023-04-27T22:41:34.263Z,4.15
2023-04-27T22:44:01.142Z,2.70
2023-04-27T22:46:28.003Z,3.75
2023-04-27T22:48:54.855Z,2.70
2023-04-27T22:51:21.749Z,6.50
2023-04-27T22:53:49.098Z,4.43
2023-04-27T22:56:15.899Z,3.40
2023-04-27T22:58:42.706Z,4.25
2023-04-27T23:01:09.572Z,4.05
2023-04-27T23:03:36.459Z,4.47
2023-04-27T23:06:03.402Z,6.53
2023-04-27T23:08:30.137Z,3.60
2023-04-27T23:10:57.735Z,3.70
2023-04-27T23:13:27.559Z,7.20
2023-04-27T23:15:54.411Z,5.47
2023-04-27T23:18:21.551Z,5.53
2023-04-27T23:20:55.601Z,5.07
2023-04-27T23:23:22.457Z,6.50
2023-04-27T23:25:49.366Z,5.22
2023-04-27T23:28:16.132Z,8.98
2023-04-27T23:30:43.086Z,5.22
2023-04-27T23:33:09.799Z,7.57
2023-04-27T23:35:36.664Z,6.63
2023-04-27T23:38:03.522Z,7.38
2023-04-27T23:40:30.375Z,5.28
2023-04-27T23:42:57.295Z,6.30
2023-04-27T23:45:24.058Z,5.82
2023-04-27T23:47:50.818Z,6.93
2023-04-27T23:50:17.732Z,6.93
2023-04-27T23:52:45.206Z,8.00
2023-04-27T23:55:12.017Z,7.18
2023-04-27T23:57:38.810Z,5.10
